createdAt,value
2018-01-13T00:00:33.866Z,5.12
2018-01-13T00:01:33.801Z,5.02
2018-01-13T00:02:33.734Z,5.12
2018-01-13T00:03:33.667Z,5.16
2018-01-13T00:04:33.605Z,4.99
2018-01-13T00:05:33.537Z,5.10
2018-01-13T00:06:33.473Z,5.07
2018-01-13T00:07:33.405Z,5.02
2018-01-13T00:08:33.341Z,5.10
2018-01-13T00:09:33.275Z,5.04
2018-01-13T00:10:33.210Z,5.10
2018-01-13T00:11:33.146Z,5.12
2018-01-13T00:12:33.081Z,5.05
2018-01-13T00:13:33.015Z,5.13
2018-01-13T00:14:32.950Z,4.99
2018-01-13T00:15:32.884Z,5.13
2018-01-13T00:16:32.818Z,5.09
2018-01-13T00:17:32.773Z,5.07
2018-01-13T00:18:32.689Z,5.05
2018-01-13T00:19:32.623Z,4.98
2018-01-13T00:20:32.557Z,5.16
2018-01-13T00:21:32.493Z,5.10
2018-01-13T00:22:32.428Z,5.09
2018-01-13T00:23:32.362Z,5.07
2018-01-13T00:24:32.301Z,5.14
2018-01-13T00:25:32.237Z,5.10
2018-01-13T00:26:32.167Z,5.14
2018-01-13T00:27:32.100Z,5.12
2018-01-13T00:28:32.035Z,5.13
2018-01-13T00:29:31.969Z,5.10
2018-01-13T00:30:31.906Z,5.13
2018-01-13T00:31:31.840Z,5.07
2018-01-13T00:32:31.773Z,5.09
2018-01-13T00:33:31.710Z,5.02
2018-01-13T00:34:31.644Z,5.14
2018-01-13T00:35:31.578Z,4.98
2018-01-13T00:36:31.512Z,5.01
2018-01-13T00:37:31.447Z,5.10
2018-01-13T00:38:31.383Z,5.07
2018-01-13T00:39:31.317Z,5.07
2018-01-13T00:40:31.252Z,5.04
2018-01-13T00:41:31.187Z,5.12
2018-01-13T00:42:31.126Z,5.12
2018-01-13T00:43:31.056Z,5.09
2018-01-13T00:44:31.000Z,5.09
2018-01-13T00:45:30.925Z,5.12
2018-01-13T00:46:30.860Z,5.12
2018-01-13T00:47:30.794Z,5.10
2018-01-13T00:48:30.729Z,5.14
2018-01-13T00:49:30.664Z,5.12
2018-01-13T00:50:30.601Z,5.13
2018-01-13T00:51:30.532Z,5.17
2018-01-13T00:52:30.469Z,5.16
2018-01-13T00:53:30.402Z,5.07
2018-01-13T00:54:30.337Z,5.05
2018-01-13T00:55:30.273Z,5.09
2018-01-13T00:56:30.206Z,5.09
2018-01-13T00:57:30.143Z,5.02
2018-01-13T00:58:30.076Z,5.13
2018-01-13T00:59:30.012Z,5.09
2018-01-13T01:00:29.945Z,5.09
2018-01-13T01:01:29.879Z,5.10
2018-01-13T01:02:29.815Z,5.16
2018-01-13T01:03:29.748Z,5.07
2018-01-13T01:04:29.683Z,5.13
2018-01-13T01:05:29.618Z,5.12
2018-01-13T01:06:29.552Z,5.10
2018-01-13T01:07:29.485Z,5.13
2018-01-13T01:08:29.420Z,5.12
2018-01-13T01:09:29.354Z,5.12
2018-01-13T01:10:29.291Z,5.10
2018-01-13T01:11:29.223Z,5.07
2018-01-13T01:12:29.160Z,5.05
2018-01-13T01:13:29.094Z,5.10
2018-01-13T01:14:29.031Z,5.12
2018-01-13T01:15:28.962Z,5.12
2018-01-13T01:16:28.897Z,5.13
2018-01-13T01:17:28.831Z,5.12
2018-01-13T01:18:28.767Z,5.13
2018-01-13T01:19:28.703Z,5.12
2018-01-13T01:20:28.635Z,5.02
2018-01-13T01:21:28.571Z,5.13
2018-01-13T01:22:28.504Z,5.09
2018-01-13T01:23:28.438Z,5.12
2018-01-13T01:24:28.372Z,5.13
2018-01-13T01:25:28.308Z,5.09
2018-01-13T01:26:28.240Z,5.09
2018-01-13T01:27:28.176Z,5.13
2018-01-13T01:28:28.110Z,5.10
2018-01-13T01:29:28.044Z,5.09
2018-01-13T01:30:27.980Z,5.04
2018-01-13T01:31:27.914Z,5.07
2018-01-13T01:32:27.849Z,5.05
2018-01-13T01:33:27.783Z,5.05
2018-01-13T01:34:27.718Z,5.07
2018-01-13T01:35:27.652Z,5.07
2018-01-13T01:36:27.587Z,5.05
2018-01-13T01:37:27.521Z,5.13
2018-01-13T01:38:27.483Z,5.12
2018-01-13T01:39:27.391Z,5.09
2018-01-13T01:40:27.326Z,5.09
2018-01-13T01:41:27.258Z,5.07
2018-01-13T01:42:27.200Z,5.16
2018-01-13T01:43:27.128Z,5.14
2018-01-13T01:44:27.062Z,5.01
2018-01-13T01:45:26.998Z,5.13
2018-01-13T01:46:26.934Z,5.07
2018-01-13T01:47:26.868Z,4.98
2018-01-13T01:48:26.801Z,5.10
2018-01-13T01:49:26.737Z,5.09
2018-01-13T01:50:26.672Z,5.09
2018-01-13T01:51:26.606Z,5.12
2018-01-13T01:52:26.540Z,5.10
2018-01-13T01:53:26.475Z,5.02
2018-01-13T01:54:26.410Z,5.14
2018-01-13T01:55:26.344Z,5.14
2018-01-13T01:56:26.279Z,5.02
2018-01-13T01:57:26.213Z,4.94
2018-01-13T01:58:26.148Z,5.09
2018-01-13T01:59:26.082Z,4.96
2018-01-13T02:00:26.017Z,5.14
2018-01-13T02:01:25.952Z,5.07
2018-01-13T02:02:25.887Z,5.01
2018-01-13T02:03:25.820Z,5.09
2018-01-13T02:04:25.755Z,5.14
2018-01-13T02:05:25.692Z,5.01
2018-01-13T02:06:25.625Z,5.10
2018-01-13T02:07:25.560Z,5.13
2018-01-13T02:08:25.494Z,5.09
2018-01-13T02:09:25.428Z,5.05
2018-01-13T02:10:25.364Z,5.07
2018-01-13T02:11:25.297Z,5.05
2018-01-13T02:12:25.232Z,5.04
2018-01-13T02:13:25.168Z,5.05
2018-01-13T02:14:25.101Z,5.07
2018-01-13T02:15:25.035Z,5.05
2018-01-13T02:16:24.970Z,5.05
2018-01-13T02:17:24.905Z,5.05
2018-01-13T02:18:24.840Z,4.98
2018-01-13T02:19:24.773Z,5.05
2018-01-13T02:20:24.709Z,5.05
2018-01-13T02:21:24.642Z,5.09
2018-01-13T02:22:24.579Z,5.04
2018-01-13T02:23:24.513Z,5.10
2018-01-13T02:24:24.447Z,5.04
2018-01-13T02:25:24.382Z,5.02
2018-01-13T02:26:24.317Z,5.01
2018-01-13T02:27:24.256Z,4.91
2018-01-13T02:28:24.188Z,4.92
2018-01-13T02:29:24.119Z,5.02
2018-01-13T02:30:24.054Z,4.92
2018-01-13T02:31:23.988Z,4.94
2018-01-13T02:32:23.924Z,4.94
2018-01-13T02:33:23.859Z,5.07
2018-01-13T02:34:23.797Z,5.01
2018-01-13T02:35:23.727Z,5.04
2018-01-13T02:36:23.662Z,5.07
2018-01-13T02:37:23.597Z,5.05
2018-01-13T02:38:23.534Z,5.04
2018-01-13T02:39:23.466Z,4.94
2018-01-13T02:40:23.401Z,4.89
2018-01-13T02:41:23.335Z,4.96
2018-01-13T02:42:23.420Z,5.04
2018-01-13T02:43:23.205Z,5.05
2018-01-13T02:44:23.139Z,4.92
2018-01-13T02:45:23.074Z,4.98
2018-01-13T02:46:23.010Z,5.05
2018-01-13T02:47:22.993Z,5.13
2018-01-13T02:48:22.878Z,4.99
2018-01-13T02:49:22.813Z,5.05
2018-01-13T02:50:22.749Z,5.10
2018-01-13T02:51:22.680Z,5.09
2018-01-13T02:52:22.617Z,5.09
2018-01-13T02:53:22.550Z,5.02
2018-01-13T02:54:22.486Z,5.14
2018-01-13T02:55:22.420Z,5.09
2018-01-13T02:56:22.354Z,4.96
2018-01-13T02:57:22.288Z,4.98
2018-01-13T02:58:22.223Z,5.02
2018-01-13T02:59:22.168Z,5.05
2018-01-13T03:00:22.091Z,5.02
2018-01-13T03:01:22.026Z,4.98
2018-01-13T03:02:21.961Z,5.07
2018-01-13T03:03:21.895Z,5.01
2018-01-13T03:04:21.830Z,4.99
2018-01-13T03:05:21.765Z,5.02
2018-01-13T03:06:21.702Z,5.04
2018-01-13T03:07:21.635Z,5.09
2018-01-13T03:08:21.568Z,4.95
2018-01-13T03:09:21.502Z,5.04
2018-01-13T03:10:21.438Z,4.92
2018-01-13T03:11:21.371Z,4.91
2018-01-13T03:12:21.304Z,4.94
2018-01-13T03:13:21.241Z,4.91
2018-01-13T03:14:21.176Z,4.91
2018-01-13T03:15:21.108Z,4.91
2018-01-13T03:16:21.043Z,5.02
2018-01-13T03:17:20.978Z,4.92
2018-01-13T03:18:20.914Z,4.96
2018-01-13T03:19:20.847Z,4.94
2018-01-13T03:20:20.783Z,4.95
2018-01-13T03:21:20.717Z,4.94
2018-01-13T03:22:20.651Z,4.91
2018-01-13T03:23:20.585Z,4.91
2018-01-13T03:24:20.520Z,4.95
2018-01-13T03:25:20.456Z,4.96
2018-01-13T03:26:20.388Z,5.05
2018-01-13T03:27:20.324Z,4.92
2018-01-13T03:28:20.258Z,4.94
2018-01-13T03:29:20.193Z,4.91
2018-01-13T03:30:20.128Z,4.95
2018-01-13T03:31:20.063Z,4.92
2018-01-13T03:32:19.996Z,4.88
2018-01-13T03:33:19.931Z,4.91
2018-01-13T03:34:19.865Z,4.98
2018-01-13T03:35:19.799Z,5.04
2018-01-13T03:36:19.738Z,4.91
2018-01-13T03:37:19.669Z,4.92
2018-01-13T03:38:19.604Z,4.91
2018-01-13T03:39:19.537Z,5.02
2018-01-13T03:40:19.471Z,5.01
2018-01-13T03:41:19.407Z,4.92
2018-01-13T03:42:19.342Z,4.96
2018-01-13T03:43:19.275Z,4.96
2018-01-13T03:44:19.210Z,4.91
2018-01-13T03:45:19.144Z,4.94
2018-01-13T03:46:19.080Z,4.96
2018-01-13T03:47:19.014Z,4.94
2018-01-13T03:48:18.948Z,4.95
2018-01-13T03:49:18.882Z,4.96
2018-01-13T03:50:18.818Z,4.94
2018-01-13T03:51:18.753Z,4.94
2018-01-13T03:52:18.685Z,4.99
2018-01-13T03:53:18.624Z,4.91
2018-01-13T03:54:18.556Z,4.95
2018-01-13T03:55:18.488Z,4.99
2018-01-13T03:56:18.423Z,4.96
2018-01-13T03:57:18.358Z,4.94
2018-01-13T03:58:18.293Z,5.02
2018-01-13T03:59:18.227Z,4.96
2018-01-13T04:00:18.161Z,4.96
2018-01-13T04:01:18.097Z,4.91
2018-01-13T04:02:18.031Z,5.01
2018-01-13T04:03:17.964Z,4.96
2018-01-13T04:04:17.900Z,4.91
2018-01-13T04:05:17.834Z,5.04
2018-01-13T04:06:17.769Z,4.94
2018-01-13T04:07:17.701Z,4.98
2018-01-13T04:08:17.637Z,4.95
2018-01-13T04:09:17.571Z,4.94
2018-01-13T04:10:17.507Z,4.91
2018-01-13T04:11:17.440Z,4.98
2018-01-13T04:12:17.374Z,4.96
2018-01-13T04:13:17.312Z,4.92
2018-01-13T04:14:17.244Z,4.92
2018-01-13T04:15:17.178Z,4.95
2018-01-13T04:16:17.114Z,4.98
2018-01-13T04:17:17.047Z,4.91
2018-01-13T04:18:16.983Z,4.94
2018-01-13T04:19:16.914Z,4.94
2018-01-13T04:20:16.850Z,4.99
2018-01-13T04:21:16.784Z,4.94
2018-01-13T04:22:16.718Z,4.95
2018-01-13T04:23:16.651Z,4.91
2018-01-13T04:24:16.587Z,4.95
2018-01-13T04:25:16.567Z,4.89
2018-01-13T04:26:16.458Z,4.94
2018-01-13T04:27:16.388Z,4.96
2018-01-13T04:28:16.324Z,4.98
2018-01-13T04:29:16.265Z,4.96
2018-01-13T04:30:16.193Z,4.96
2018-01-13T04:31:16.126Z,4.96
2018-01-13T04:32:16.061Z,4.92
2018-01-13T04:33:16.001Z,4.94
2018-01-13T04:34:15.929Z,4.94
2018-01-13T04:35:15.864Z,4.89
2018-01-13T04:36:15.796Z,4.98
2018-01-13T04:37:15.731Z,4.92
2018-01-13T04:38:15.666Z,4.96
2018-01-13T04:39:15.600Z,4.95
2018-01-13T04:40:15.534Z,4.98
2018-01-13T04:41:15.470Z,4.95
2018-01-13T04:42:15.402Z,4.94
2018-01-13T04:43:15.342Z,4.94
2018-01-13T04:44:15.270Z,4.91
2018-01-13T04:45:15.206Z,4.94
2018-01-13T04:46:15.140Z,4.88
2018-01-13T04:47:15.074Z,4.98
2018-01-13T04:48:15.010Z,4.92
2018-01-13T04:49:14.943Z,4.94
2018-01-13T04:50:14.878Z,4.96
2018-01-13T04:51:14.810Z,4.99
2018-01-13T04:52:14.747Z,4.92
2018-01-13T04:53:14.679Z,4.95
2018-01-13T04:54:14.614Z,4.95
2018-01-13T04:55:14.549Z,4.98
2018-01-13T04:56:14.484Z,4.94
2018-01-13T04:57:14.416Z,4.94
2018-01-13T04:58:14.352Z,4.94
2018-01-13T04:59:14.285Z,4.92
2018-01-13T05:00:14.221Z,4.89
2018-01-13T05:01:14.153Z,4.96
2018-01-13T05:02:14.090Z,4.94
2018-01-13T05:03:14.023Z,4.94
2018-01-13T05:04:13.957Z,4.86
2018-01-13T05:05:13.892Z,4.94
2018-01-13T05:06:13.829Z,4.96
2018-01-13T05:07:13.759Z,4.91
2018-01-13T05:08:13.695Z,4.94
2018-01-13T05:09:13.629Z,4.91
2018-01-13T05:10:13.562Z,4.98
2018-01-13T05:11:13.498Z,4.92
2018-01-13T05:12:13.433Z,4.96
2018-01-13T05:13:13.367Z,5.02
2018-01-13T05:14:13.300Z,4.99
2018-01-13T05:15:13.235Z,4.98
2018-01-13T05:16:13.169Z,4.96
2018-01-13T05:17:13.104Z,5.02
2018-01-13T05:18:13.038Z,4.96
2018-01-13T05:19:12.973Z,5.02
2018-01-13T05:20:12.906Z,4.98
2018-01-13T05:21:12.841Z,4.94
2018-01-13T05:22:12.775Z,4.96
2018-01-13T05:23:12.710Z,4.96
2018-01-13T05:24:12.643Z,4.94
2018-01-13T05:25:12.579Z,4.98
2018-01-13T05:26:12.513Z,4.92
2018-01-13T05:27:12.448Z,4.92
2018-01-13T05:28:12.381Z,4.94
2018-01-13T05:29:12.316Z,4.96
2018-01-13T05:30:12.251Z,4.91
2018-01-13T05:31:12.185Z,4.98
2018-01-13T05:32:12.119Z,4.92
2018-01-13T05:33:12.376Z,5.01
2018-01-13T05:34:11.988Z,4.94
2018-01-13T05:35:11.923Z,4.98
2018-01-13T05:36:11.856Z,4.95
2018-01-13T05:37:11.790Z,4.92
2018-01-13T05:38:11.726Z,4.92
2018-01-13T05:39:11.659Z,4.98
2018-01-13T05:40:11.593Z,4.94
2018-01-13T05:41:11.527Z,4.92
2018-01-13T05:42:11.463Z,4.92
2018-01-13T05:43:11.397Z,5.02
2018-01-13T05:44:11.332Z,4.92
2018-01-13T05:45:11.264Z,4.96
2018-01-13T05:46:11.200Z,4.88
2018-01-13T05:47:11.141Z,4.95
2018-01-13T05:48:11.069Z,4.96
2018-01-13T05:49:11.005Z,4.95
2018-01-13T05:50:10.937Z,4.95
2018-01-13T05:51:10.872Z,4.98
2018-01-13T05:52:10.806Z,4.95
2018-01-13T05:53:10.740Z,4.88
2018-01-13T05:54:10.675Z,4.96
2018-01-13T05:55:10.608Z,4.95
2018-01-13T05:56:10.543Z,5.02
2018-01-13T05:57:10.493Z,4.91
2018-01-13T05:58:10.411Z,4.98
2018-01-13T05:59:10.346Z,4.96
2018-01-13T06:00:10.281Z,4.96
2018-01-13T06:01:10.215Z,4.94
2018-01-13T06:02:10.149Z,4.96
2018-01-13T06:03:10.084Z,4.99
2018-01-13T06:04:10.018Z,4.92
2018-01-13T06:05:09.952Z,4.94
2018-01-13T06:06:09.887Z,5.01
2018-01-13T06:07:09.821Z,4.94
2018-01-13T06:08:09.755Z,4.94
2018-01-13T06:09:09.689Z,4.95
2018-01-13T06:10:09.628Z,4.91
2018-01-13T06:11:09.557Z,4.94
2018-01-13T06:12:09.493Z,4.94
2018-01-13T06:13:09.427Z,4.95
2018-01-13T06:14:09.363Z,4.92
2018-01-13T06:15:09.295Z,4.94
2018-01-13T06:16:09.236Z,4.94
2018-01-13T06:17:09.163Z,4.94
2018-01-13T06:18:09.099Z,4.91
2018-01-13T06:19:09.033Z,5.04
2018-01-13T06:20:08.968Z,5.02
2018-01-13T06:21:08.902Z,4.99
2018-01-13T06:22:08.835Z,4.96
2018-01-13T06:23:08.771Z,4.94
2018-01-13T06:24:08.705Z,5.05
2018-01-13T06:25:08.641Z,4.98
2018-01-13T06:26:08.573Z,4.95
2018-01-13T06:27:08.507Z,4.92
2018-01-13T06:28:08.465Z,4.96
2018-01-13T06:29:08.375Z,4.98
2018-01-13T06:30:08.311Z,4.95
2018-01-13T06:31:08.244Z,4.91
2018-01-13T06:32:08.178Z,4.92
2018-01-13T06:33:08.172Z,4.92
2018-01-13T06:34:08.047Z,4.92
2018-01-13T06:35:07.981Z,4.92
2018-01-13T06:36:07.915Z,5.04
2018-01-13T06:37:07.850Z,4.96
2018-01-13T06:38:07.786Z,4.88
2018-01-13T06:39:07.718Z,4.94
2018-01-13T06:40:07.652Z,4.99
2018-01-13T06:41:07.586Z,5.01
2018-01-13T06:42:07.519Z,4.92
2018-01-13T06:43:07.454Z,4.94
2018-01-13T06:44:07.388Z,4.94
2018-01-13T06:45:07.322Z,4.95
2018-01-13T06:46:07.256Z,4.95
2018-01-13T06:47:07.190Z,4.95
2018-01-13T06:48:07.123Z,4.92
2018-01-13T06:49:07.058Z,4.89
2018-01-13T06:50:06.996Z,4.92
2018-01-13T06:51:06.926Z,4.83
2018-01-13T06:52:06.860Z,4.89
2018-01-13T06:53:06.795Z,4.94
2018-01-13T06:54:06.729Z,4.88
2018-01-13T06:55:06.663Z,4.91
2018-01-13T06:56:06.600Z,4.96
2018-01-13T06:57:06.532Z,4.96
2018-01-13T06:58:06.516Z,4.94
2018-01-13T06:59:06.399Z,4.86
2018-01-13T07:00:06.334Z,4.99
2018-01-13T07:01:06.267Z,4.88
2018-01-13T07:02:06.203Z,4.96
2018-01-13T07:03:06.136Z,4.95
2018-01-13T07:04:06.071Z,4.91
2018-01-13T07:05:06.009Z,4.91
2018-01-13T07:06:05.941Z,4.94
2018-01-13T07:07:05.874Z,4.92
2018-01-13T07:08:05.809Z,4.92
2018-01-13T07:09:05.743Z,4.99
2018-01-13T07:10:05.678Z,4.96
2018-01-13T07:11:05.609Z,5.02
2018-01-13T07:12:05.580Z,4.95
2018-01-13T07:13:05.478Z,4.92
2018-01-13T07:14:05.413Z,4.96
2018-01-13T07:15:05.347Z,5.01
2018-01-13T07:16:05.281Z,5.02
2018-01-13T07:17:05.215Z,4.89
2018-01-13T07:18:05.150Z,4.99
2018-01-13T07:19:05.083Z,4.94
2018-01-13T07:20:05.018Z,4.94
2018-01-13T07:21:04.953Z,4.94
2018-01-13T07:22:04.888Z,5.01
2018-01-13T07:23:04.821Z,4.96
2018-01-13T07:24:04.755Z,4.98
2018-01-13T07:25:04.690Z,5.01
2018-01-13T07:26:04.624Z,5.07
2018-01-13T07:27:04.557Z,5.07
2018-01-13T07:28:04.493Z,4.98
2018-01-13T07:29:04.427Z,5.04
2018-01-13T07:30:04.362Z,5.05
2018-01-13T07:31:04.294Z,5.05
2018-01-13T07:32:04.229Z,5.09
2018-01-13T07:33:04.165Z,5.04
2018-01-13T07:34:04.097Z,5.07
2018-01-13T07:35:04.032Z,5.10
2018-01-13T07:36:03.965Z,5.10
2018-01-13T07:37:03.900Z,5.09
2018-01-13T07:38:03.834Z,5.05
2018-01-13T07:39:03.767Z,5.10
2018-01-13T07:40:03.702Z,5.09
2018-01-13T07:41:03.638Z,5.10
2018-01-13T07:42:03.571Z,5.01
2018-01-13T07:43:03.510Z,5.07
2018-01-13T07:44:03.438Z,5.09
2018-01-13T07:45:03.375Z,5.01
2018-01-13T07:46:03.308Z,5.02
2018-01-13T07:47:03.242Z,5.01
2018-01-13T07:48:03.177Z,5.13
2018-01-13T07:49:03.111Z,5.02
2018-01-13T07:50:03.046Z,5.02
2018-01-13T07:51:02.978Z,5.13
2018-01-13T07:52:02.914Z,5.12
2018-01-13T07:53:02.847Z,5.14
2018-01-13T07:54:02.933Z,5.14
2018-01-13T07:55:02.717Z,5.22
2018-01-13T07:56:02.652Z,5.13
2018-01-13T07:57:02.585Z,5.09
2018-01-13T07:58:02.521Z,5.19
2018-01-13T07:59:02.453Z,5.10
2018-01-13T08:00:02.391Z,5.20
2018-01-13T08:01:02.322Z,5.20
2018-01-13T08:02:02.258Z,5.23
2018-01-13T08:03:02.191Z,5.19
2018-01-13T08:04:02.128Z,5.25
2018-01-13T08:05:02.060Z,5.28
2018-01-13T08:06:02.001Z,5.27
2018-01-13T08:07:01.928Z,5.34
2018-01-13T08:08:01.863Z,5.34
2018-01-13T08:09:01.805Z,5.46
2018-01-13T08:10:01.732Z,5.31
2018-01-13T08:11:01.665Z,5.32
2018-01-13T08:12:01.600Z,5.34
2018-01-13T08:13:01.535Z,5.38
2018-01-13T08:14:01.471Z,5.31
2018-01-13T08:15:01.403Z,5.35
2018-01-13T08:16:01.338Z,5.40
2018-01-13T08:17:01.273Z,5.45
2018-01-13T08:18:01.209Z,5.46
2018-01-13T08:19:01.141Z,5.43
2018-01-13T08:20:01.279Z,5.38
2018-01-13T08:21:01.014Z,5.52
2018-01-13T08:22:00.944Z,5.49
2018-01-13T08:23:00.880Z,5.55
2018-01-13T08:24:00.814Z,5.55
2018-01-13T08:25:00.750Z,5.46
2018-01-13T08:26:00.684Z,5.50
2018-01-13T08:27:00.620Z,5.56
2018-01-13T08:28:00.553Z,5.53
2018-01-13T08:29:00.487Z,5.59
2018-01-13T08:30:00.422Z,5.60
2018-01-13T08:31:00.357Z,5.57
2018-01-13T08:32:00.291Z,5.60
2018-01-13T08:33:00.226Z,5.63
2018-01-13T08:34:00.162Z,5.53
2018-01-13T08:35:00.095Z,5.57
2018-01-13T08:36:00.032Z,5.66
2018-01-13T08:36:59.964Z,5.63
2018-01-13T08:37:59.900Z,5.67
2018-01-13T08:38:59.833Z,5.55
2018-01-13T08:39:59.784Z,5.64
2018-01-13T08:40:59.705Z,5.63
2018-01-13T08:41:59.639Z,5.70
2018-01-13T08:42:59.573Z,5.70
2018-01-13T08:43:59.507Z,5.73
2018-01-13T08:44:59.444Z,5.66
2018-01-13T08:45:59.378Z,5.71
2018-01-13T08:46:59.310Z,5.70
2018-01-13T08:47:59.249Z,5.68
2018-01-13T08:48:59.182Z,5.78
2018-01-13T08:49:59.117Z,5.73
2018-01-13T08:50:59.049Z,5.75
2018-01-13T08:51:58.985Z,5.71
2018-01-13T08:52:58.920Z,5.70
2018-01-13T08:53:58.857Z,5.75
2018-01-13T08:54:58.792Z,5.78
2018-01-13T08:55:58.724Z,5.78
2018-01-13T08:56:58.659Z,5.77
2018-01-13T08:57:58.594Z,5.78
2018-01-13T08:58:58.528Z,5.77
2018-01-13T08:59:58.463Z,5.74
2018-01-13T09:00:58.398Z,5.77
2018-01-13T09:01:58.333Z,5.70
2018-01-13T09:02:58.267Z,5.89
2018-01-13T09:03:58.203Z,5.86
2018-01-13T09:04:58.138Z,5.86
2018-01-13T09:05:58.074Z,5.92
2018-01-13T09:06:58.008Z,5.89
2018-01-13T09:07:57.942Z,5.93
2018-01-13T09:08:57.878Z,5.92
2018-01-13T09:09:57.822Z,6.00
2018-01-13T09:10:57.748Z,5.96
2018-01-13T09:11:57.683Z,5.93
2018-01-13T09:12:57.618Z,6.00
2018-01-13T09:13:57.553Z,6.06
2018-01-13T09:14:57.487Z,6.09
2018-01-13T09:15:57.423Z,6.13
2018-01-13T09:16:57.358Z,6.13
2018-01-13T09:17:57.293Z,6.18
2018-01-13T09:18:57.229Z,6.10
2018-01-13T09:19:57.365Z,6.26
2018-01-13T09:20:57.099Z,6.21
2018-01-13T09:21:57.035Z,6.30
2018-01-13T09:22:57.028Z,6.11
2018-01-13T09:23:56.903Z,6.26
2018-01-13T09:24:56.839Z,6.30
2018-01-13T09:25:56.776Z,6.32
2018-01-13T09:26:56.709Z,6.40
2018-01-13T09:27:56.644Z,6.36
2018-01-13T09:28:56.580Z,6.30
2018-01-13T09:29:56.516Z,6.36
2018-01-13T09:30:56.451Z,6.46
2018-01-13T09:31:56.386Z,6.38
2018-01-13T09:32:56.320Z,6.44
2018-01-13T09:33:56.257Z,6.51
2018-01-13T09:34:56.191Z,6.50
2018-01-13T09:35:56.127Z,6.56
2018-01-13T09:36:56.062Z,6.61
2018-01-13T09:37:55.999Z,6.65
2018-01-13T09:38:55.935Z,6.76
2018-01-13T09:39:55.870Z,6.65
2018-01-13T09:40:55.805Z,6.56
2018-01-13T09:41:55.740Z,6.68
2018-01-13T09:42:55.676Z,6.63
2018-01-13T09:43:55.611Z,6.63
2018-01-13T09:44:55.553Z,6.66
2018-01-13T09:45:55.483Z,6.65
2018-01-13T09:46:55.417Z,6.76
2018-01-13T09:47:55.353Z,6.62
2018-01-13T09:48:55.289Z,6.71
2018-01-13T09:49:55.225Z,6.72
2018-01-13T09:50:55.159Z,6.84
2018-01-13T09:51:55.096Z,6.80
2018-01-13T09:52:55.083Z,6.90
2018-01-13T09:53:54.968Z,6.73
2018-01-13T09:54:54.903Z,6.72
2018-01-13T09:55:54.840Z,6.84
2018-01-13T09:56:54.776Z,6.76
2018-01-13T09:57:54.711Z,6.89
2018-01-13T09:58:54.645Z,6.90
2018-01-13T09:59:54.582Z,6.99
2018-01-13T10:00:54.518Z,7.01
2018-01-13T10:01:54.454Z,6.91
2018-01-13T10:02:54.389Z,6.98
2018-01-13T10:03:54.326Z,7.04
2018-01-13T10:04:54.261Z,7.04
2018-01-13T10:05:54.198Z,7.05
2018-01-13T10:06:54.133Z,7.04
2018-01-13T10:07:54.069Z,7.19
2018-01-13T10:08:54.006Z,7.12
2018-01-13T10:09:53.941Z,7.15
2018-01-13T10:10:53.877Z,7.15
2018-01-13T10:11:53.813Z,7.09
2018-01-13T10:12:53.751Z,7.15
2018-01-13T10:13:53.687Z,7.05
2018-01-13T10:14:53.621Z,7.07
2018-01-13T10:15:53.558Z,7.02
2018-01-13T10:16:53.493Z,7.12
2018-01-13T10:17:53.430Z,7.04
2018-01-13T10:18:53.369Z,7.19
2018-01-13T10:19:53.301Z,7.05
2018-01-13T10:20:53.238Z,7.05
2018-01-13T10:21:53.175Z,7.13
2018-01-13T10:22:53.109Z,7.17
2018-01-13T10:23:53.046Z,7.09
2018-01-13T10:24:52.982Z,7.16
2018-01-13T10:25:52.917Z,7.29
2018-01-13T10:26:52.853Z,7.12
2018-01-13T10:27:52.791Z,7.12
2018-01-13T10:28:52.726Z,7.13
2018-01-13T10:29:52.674Z,7.17
2018-01-13T10:30:52.597Z,7.17
2018-01-13T10:31:52.542Z,6.98
2018-01-13T10:32:52.471Z,7.09
2018-01-13T10:33:52.408Z,7.08
2018-01-13T10:34:52.343Z,7.05
2018-01-13T10:35:52.279Z,7.07
2018-01-13T10:36:52.215Z,7.04
2018-01-13T10:37:52.152Z,7.01
2018-01-13T10:38:52.088Z,7.04
2018-01-13T10:39:52.024Z,7.05
2018-01-13T10:40:51.960Z,7.13
2018-01-13T10:41:51.895Z,7.15
2018-01-13T10:42:51.831Z,7.09
2018-01-13T10:43:51.768Z,7.12
2018-01-13T10:44:51.703Z,7.07
2018-01-13T10:45:51.640Z,6.94
2018-01-13T10:46:51.575Z,7.02
2018-01-13T10:47:51.533Z,7.15
2018-01-13T10:48:51.449Z,6.98
2018-01-13T10:49:51.389Z,7.07
2018-01-13T10:50:51.319Z,7.15
2018-01-13T10:51:51.265Z,7.16
2018-01-13T10:52:51.191Z,7.04
2018-01-13T10:53:51.131Z,7.15
2018-01-13T10:54:51.082Z,7.13
2018-01-13T10:55:50.999Z,7.12
2018-01-13T10:56:50.935Z,6.98
2018-01-13T10:57:50.875Z,7.12
2018-01-13T10:58:50.808Z,7.16
2018-01-13T10:59:50.743Z,7.17
2018-01-13T11:00:50.680Z,7.13
2018-01-13T11:01:50.618Z,7.17
2018-01-13T11:02:50.552Z,7.15
2018-01-13T11:03:50.488Z,7.15
2018-01-13T11:04:50.426Z,7.19
2018-01-13T11:05:50.360Z,7.13
2018-01-13T11:06:50.297Z,7.16
2018-01-13T11:07:50.232Z,7.27
2018-01-13T11:08:50.193Z,7.23
2018-01-13T11:09:50.108Z,7.08
2018-01-13T11:10:50.040Z,7.22
2018-01-13T11:11:49.977Z,7.15
2018-01-13T11:12:49.913Z,7.16
2018-01-13T11:13:49.850Z,7.15
2018-01-13T11:14:49.784Z,7.08
2018-01-13T11:15:49.720Z,7.13
2018-01-13T11:16:49.692Z,7.20
2018-01-13T11:17:49.594Z,7.16
2018-01-13T11:18:49.529Z,7.16
2018-01-13T11:19:49.465Z,7.15
2018-01-13T11:20:49.402Z,7.27
2018-01-13T11:21:49.336Z,7.15
2018-01-13T11:22:49.271Z,7.19
2018-01-13T11:23:49.209Z,7.16
2018-01-13T11:24:49.145Z,7.13
2018-01-13T11:25:49.081Z,7.16
2018-01-13T11:26:49.023Z,7.16
2018-01-13T11:27:48.962Z,7.13
2018-01-13T11:28:48.890Z,7.16
2018-01-13T11:29:48.826Z,7.22
2018-01-13T11:30:48.762Z,7.22
2018-01-13T11:31:48.698Z,7.23
2018-01-13T11:32:48.633Z,7.17
2018-01-13T11:33:48.569Z,7.19
2018-01-13T11:34:48.543Z,7.20
2018-01-13T11:35:48.441Z,7.22
2018-01-13T11:36:48.378Z,7.31
2018-01-13T11:37:48.315Z,7.29
2018-01-13T11:38:48.249Z,7.26
2018-01-13T11:39:48.235Z,7.27
2018-01-13T11:40:48.123Z,7.23
2018-01-13T11:41:48.058Z,7.23
2018-01-13T11:42:48.000Z,7.17
2018-01-13T11:43:47.930Z,7.22
2018-01-13T11:44:47.866Z,7.12
2018-01-13T11:45:47.806Z,7.16
2018-01-13T11:46:47.738Z,7.17
2018-01-13T11:47:47.675Z,7.20
2018-01-13T11:48:47.615Z,7.24
2018-01-13T11:49:47.547Z,7.24
2018-01-13T11:50:47.484Z,7.31
2018-01-13T11:51:47.418Z,7.20
2018-01-13T11:52:47.355Z,7.22
2018-01-13T11:53:47.291Z,7.26
2018-01-13T11:54:47.225Z,7.22
2018-01-13T11:55:47.162Z,7.19
2018-01-13T11:56:47.099Z,7.22
2018-01-13T11:57:47.034Z,7.31
2018-01-13T11:58:46.973Z,7.26
2018-01-13T11:59:46.905Z,7.29
2018-01-13T12:00:46.843Z,7.23
2018-01-13T12:01:46.779Z,7.24
2018-01-13T12:02:46.715Z,7.22
2018-01-13T12:03:46.652Z,7.26
2018-01-13T12:04:46.587Z,7.24
2018-01-13T12:05:46.525Z,7.13
2018-01-13T12:06:46.460Z,7.26
2018-01-13T12:07:46.395Z,7.20
2018-01-13T12:08:46.332Z,7.26
2018-01-13T12:09:46.267Z,7.20
2018-01-13T12:10:46.203Z,7.22
2018-01-13T12:11:46.139Z,7.20
2018-01-13T12:12:46.075Z,7.13
2018-01-13T12:13:46.019Z,7.23
2018-01-13T12:14:45.947Z,7.16
2018-01-13T12:15:45.882Z,7.13
2018-01-13T12:16:45.820Z,7.15
2018-01-13T12:17:45.765Z,7.15
2018-01-13T12:18:45.691Z,7.15
2018-01-13T12:19:45.628Z,7.13
2018-01-13T12:20:45.564Z,7.13
2018-01-13T12:21:45.500Z,7.17
2018-01-13T12:22:45.437Z,7.19
2018-01-13T12:23:45.372Z,7.19
2018-01-13T12:24:45.309Z,7.17
2018-01-13T12:25:45.245Z,7.12
2018-01-13T12:26:45.181Z,7.13
2018-01-13T12:27:45.117Z,7.19
2018-01-13T12:28:45.053Z,7.16
2018-01-13T12:29:44.990Z,7.16
2018-01-13T12:30:44.926Z,7.19
2018-01-13T12:31:44.864Z,7.09
2018-01-13T12:32:44.797Z,7.13
2018-01-13T12:33:44.740Z,7.07
2018-01-13T12:34:44.668Z,7.12
2018-01-13T12:35:44.605Z,7.12
2018-01-13T12:36:44.541Z,7.09
2018-01-13T12:37:44.477Z,7.12
2018-01-13T12:38:44.413Z,7.12
2018-01-13T12:39:44.352Z,7.13
2018-01-13T12:40:44.287Z,7.08
2018-01-13T12:41:44.223Z,7.16
2018-01-13T12:42:44.158Z,7.08
2018-01-13T12:43:44.096Z,7.12
2018-01-13T12:44:44.031Z,7.15
2018-01-13T12:45:43.967Z,7.16
2018-01-13T12:46:43.902Z,7.17
2018-01-13T12:47:43.844Z,7.09
2018-01-13T12:48:43.775Z,7.08
2018-01-13T12:49:43.711Z,7.13
2018-01-13T12:50:43.647Z,7.15
2018-01-13T12:51:43.583Z,7.07
2018-01-13T12:52:43.519Z,7.13
2018-01-13T12:53:43.457Z,7.15
2018-01-13T12:54:43.393Z,7.07
2018-01-13T12:55:43.328Z,7.13
2018-01-13T12:56:43.264Z,7.09
2018-01-13T12:57:43.210Z,7.09
2018-01-13T12:58:43.135Z,7.05
2018-01-13T12:59:43.071Z,7.05
2018-01-13T13:00:43.009Z,7.01
2018-01-13T13:01:42.943Z,7.07
2018-01-13T13:02:42.880Z,7.09
2018-01-13T13:03:42.817Z,7.01
2018-01-13T13:04:42.752Z,7.12
2018-01-13T13:05:42.692Z,7.15
2018-01-13T13:06:42.624Z,7.07
2018-01-13T13:07:42.560Z,7.01
2018-01-13T13:08:42.496Z,7.09
2018-01-13T13:09:42.433Z,7.02
2018-01-13T13:10:42.369Z,7.07
2018-01-13T13:11:42.304Z,6.98
2018-01-13T13:12:42.242Z,6.99
2018-01-13T13:13:42.181Z,7.01
2018-01-13T13:14:42.114Z,6.99
2018-01-13T13:15:42.053Z,7.09
2018-01-13T13:16:41.987Z,6.98
2018-01-13T13:17:41.923Z,7.07